Time;durP1;ratioP1;P1;durP2;ratioP2;P2;SDS_P1;SDS_P2;PMS_P1;PMS_P2;Temp;Humidity;BMP_temperature;BMP_pressure;BME280_temperature;BME280_humidity;BME280_pressure;Samples;Min_cycle;Max_cycle;Signal;HPM_P1;HPM_P2
2022/08/09 00:00:17;;;;;;;3.25;0.85;;;18.20;80.50;;;;;;5039778;28;20024;-82
2022/08/09 00:02:42;;;;;;;3.75;0.98;;;18.20;80.50;;;;;;5056633;28;20492;-82
2022/08/09 00:05:08;;;;;;;4.78;0.93;;;18.20;80.80;;;;;;5074116;28;20552;-82
2022/08/09 00:07:33;;;;;;;3.80;0.90;;;18.20;80.90;;;;;;5039361;28;20387;-82
2022/08/09 00:09:59;;;;;;;3.33;1.08;;;18.20;81.00;;;;;;5039589;28;20061;-82
2022/08/09 00:12:25;;;;;;;2.92;0.90;;;18.20;81.10;;;;;;5056038;28;20029;-82
2022/08/09 00:14:51;;;;;;;3.33;1.00;;;18.20;81.30;;;;;;5055861;28;20043;-82
2022/08/09 00:17:16;;;;;;;1.95;0.80;;;18.10;81.30;;;;;;5073813;28;20100;-82
2022/08/09 00:19:42;;;;;;;2.92;1.00;;;18.10;81.40;;;;;;5056088;28;20510;-82
2022/08/09 00:22:08;;;;;;;3.10;0.80;;;18.10;81.60;;;;;;5039232;28;20028;-82
2022/08/09 00:24:34;;;;;;;3.17;0.88;;;18.10;81.70;;;;;;5073794;28;20036;-82
2022/08/09 00:27:00;;;;;;;4.68;1.10;;;18.10;81.70;;;;;;5072535;28;20028;-82
2022/08/09 00:29:26;;;;;;;2.70;0.82;;;18.10;81.80;;;;;;5074001;28;20485;-82
2022/08/09 00:31:52;;;;;;;2.28;0.88;;;18.10;81.90;;;;;;5072874;28;20024;-82
2022/08/09 00:34:18;;;;;;;4.57;1.10;;;18.00;82.60;;;;;;5039951;28;20388;-82
2022/08/09 00:36:44;;;;;;;3.20;1.30;;;18.00;81.90;;;;;;5055732;28;20085;-82
2022/08/09 00:39:10;;;;;;;3.83;0.77;;;18.00;82.00;;;;;;5073632;28;20031;-82
2022/08/09 00:41:36;;;;;;;8.10;1.40;;;18.00;81.90;;;;;;5073552;28;20025;-82
2022/08/09 00:44:02;;;;;;;9.07;1.35;;;17.90;82.00;;;;;;5055567;28;20469;-82
2022/08/09 00:46:28;;;;;;;4.10;1.30;;;17.90;82.10;;;;;;5039049;28;20082;-82
2022/08/09 00:48:53;;;;;;;3.38;1.30;;;17.90;82.20;;;;;;5073502;28;20035;-82
2022/08/09 00:51:19;;;;;;;7.05;1.27;;;17.80;82.30;;;;;;5022050;28;20040;-82
2022/08/09 00:53:46;;;;;;;5.70;1.45;;;17.80;82.40;;;;;;5073441;28;20032;-82
2022/08/09 00:56:12;;;;;;;3.70;1.20;;;17.80;82.50;;;;;;5055376;28;20025;-82
2022/08/09 00:58:38;;;;;;;3.88;0.95;;;17.70;82.70;;;;;;5073344;28;20385;-82
2022/08/09 01:01:18;;;;;;;2.78;1.17;;;17.70;82.90;;;;;;5073863;28;20028;-82
2022/08/09 01:04:00;;;;;;;3.70;1.27;;;17.70;82.90;;;;;;5073402;28;20021;-82
2022/08/09 01:06:41;;;;;;;4.90;1.35;;;17.60;82.90;;;;;;5072100;28;20034;-82
2022/08/09 01:09:44;;;;;;;5.15;1.10;;;17.60;83.00;;;;;;5071662;28;20052;-82
2022/08/09 01:12:37;;;;;;;2.50;1.20;;;17.50;83.10;;;;;;5072862;28;20032;-82
2022/08/09 01:15:13;;;;;;;2.80;1.20;;;17.50;83.20;;;;;;5055122;28;20046;-82
2022/08/09 01:18:09;;;;;;;2.97;1.33;;;17.50;83.30;;;;;;5072015;28;20073;-82
2022/08/09 01:20:53;;;;;;;3.38;1.27;;;17.50;83.40;;;;;;5071743;28;20055;-82
2022/08/09 01:23:24;;;;;;;;;;;17.40;83.40;;;;;;5073813;28;20025;-82
2022/08/09 01:26:01;;;;;;;3.95;1.40;;;17.40;83.40;;;;;;5073124;28;19950;-82
2022/08/09 01:28:29;;;;;;;4.18;1.75;;;17.30;83.20;;;;;;5055131;28;20028;-82
2022/08/09 01:30:57;;;;;;;4.43;1.50;;;17.30;83.40;;;;;;5073543;28;20530;-82
2022/08/09 01:33:27;;;;;;;5.28;1.50;;;17.30;83.70;;;;;;5073360;28;20380;-82
2022/08/09 01:36:05;;;;;;;3.33;1.40;;;17.20;83.80;;;;;;5055033;28;20077;-82
2022/08/09 01:38:37;;;;;;;4.57;1.48;;;17.20;84.00;;;;;;5073372;28;20017;-82
2022/08/09 01:41:27;;;;;;;4.00;1.40;;;17.10;84.10;;;;;;5055289;28;20032;-82
2022/08/09 01:43:56;;;;;;;5.35;2.03;;;17.10;84.30;;;;;;5072932;28;20377;-82
2022/08/09 01:46:32;;;;;;;6.47;1.88;;;17.10;84.60;;;;;;5072982;28;20056;-82
2022/08/09 01:49:00;;;;;;;3.72;1.88;;;17.10;84.70;;;;;;5073234;28;20546;-82
2022/08/09 01:51:28;;;;;;;4.38;1.90;;;17.00;84.80;;;;;;5073087;28;20028;-82
2022/08/09 01:53:57;;;;;;;6.03;1.70;;;17.00;85.00;;;;;;5054977;28;20025;-82
2022/08/09 01:56:25;;;;;;;3.67;1.50;;;17.00;85.20;;;;;;5072833;28;20381;-82
2022/08/09 01:58:54;;;;;;;4.65;1.83;;;16.90;85.30;;;;;;5054984;28;20020;-82
2022/08/09 02:01:21;;;;;;;3.65;1.67;;;16.90;85.40;;;;;;5056046;28;20016;-82
2022/08/09 02:03:48;;;;;;;6.05;1.80;;;16.80;85.40;;;;;;5075068;28;20025;-82
2022/08/09 02:07:07;;;;;;;4.55;1.55;;;16.80;85.80;;;;;;5076488;28;20021;-82
2022/08/09 02:09:03;;;;;;;5.00;2.22;;;16.80;86.00;;;;;;5075991;28;20409;-82
2022/08/09 02:11:29;;;;;;;6.18;2.05;;;16.80;86.10;;;;;;5058648;28;20035;-82
2022/08/09 02:13:54;;;;;;;4.75;2.25;;;16.80;86.40;;;;;;5058566;28;20058;-82
2022/08/09 02:16:21;;;;;;;4.72;2.05;;;16.70;86.60;;;;;;5024978;28;20381;-82
2022/08/09 02:18:47;;;;;;;4.35;2.05;;;16.70;87.00;;;;;;5058136;28;20020;-82
2022/08/09 02:21:18;;;;;;;4.30;2.17;;;16.70;87.20;;;;;;5058374;28;20037;-82
2022/08/09 02:23:51;;;;;;;7.15;2.33;;;16.70;87.50;;;;;;5076155;28;20052;-82
2022/08/09 02:26:19;;;;;;;5.25;2.05;;;16.70;87.80;;;;;;5076074;28;20025;-82
2022/08/09 02:28:52;;;;;;;5.55;2.08;;;16.70;88.00;;;;;;5058047;28;20036;-82
2022/08/09 02:31:24;;;;;;;4.10;2.00;;;16.60;88.10;;;;;;5058043;28;20043;-81
2022/08/09 02:33:54;;;;;;;4.25;2.08;;;16.60;88.40;;;;;;5075876;28;20111;-82
2022/08/09 02:36:34;;;;;;;7.47;2.08;;;16.70;88.60;;;;;;5057915;28;20016;-82
2022/08/09 02:39:06;;;;;;;3.70;2.00;;;16.60;88.80;;;;;;5057885;28;20103;-82
2022/08/09 02:41:40;;;;;;;5.60;2.15;;;16.60;89.00;;;;;;5057820;28;20021;-82
2022/08/09 02:44:14;;;;;;;4.00;2.10;;;16.70;89.20;;;;;;5075752;28;20103;-82
2022/08/09 02:46:42;;;;;;;6.15;2.28;;;16.60;89.30;;;;;;5075994;28;20085;-82
2022/08/09 02:49:11;;;;;;;4.00;1.75;;;16.60;89.50;;;;;;5075639;28;20519;-82
2022/08/09 02:51:38;;;;;;;5.10;2.00;;;16.60;89.60;;;;;;5075667;28;20024;-82
2022/08/09 02:54:06;;;;;;;4.60;1.85;;;16.60;89.70;;;;;;5057552;28;20036;-82
2022/08/09 02:56:33;;;;;;;5.30;2.45;;;16.60;89.70;;;;;;5074266;28;20025;-81
2022/08/09 02:59:03;;;;;;;6.00;1.98;;;16.60;89.80;;;;;;5075471;28;20025;-82
2022/08/09 03:01:30;;;;;;;5.70;2.65;;;16.60;90.00;;;;;;5074168;28;20016;-82
2022/08/09 03:03:57;;;;;;;5.10;2.30;;;16.50;89.90;;;;;;5057517;28;20477;-82
2022/08/09 03:06:25;;;;;;;5.40;1.98;;;16.50;90.00;;;;;;5040877;28;20036;-82
2022/08/09 03:08:52;;;;;;;6.70;2.20;;;16.50;90.00;;;;;;5024295;28;20056;-82
2022/08/09 03:11:20;;;;;;;6.13;2.88;;;16.50;90.00;;;;;;5075386;28;20103;-82
2022/08/09 03:13:47;;;;;;;5.45;2.72;;;16.50;90.10;;;;;;5073872;28;20496;-82
2022/08/09 03:16:17;;;;;;;5.28;2.38;;;16.40;90.10;;;;;;5075278;28;20041;-82
2022/08/09 03:18:47;;;;;;;5.25;2.72;;;16.40;90.10;;;;;;5040844;28;20555;-82
2022/08/09 03:21:18;;;;;;;5.25;3.13;;;16.40;90.20;;;;;;5075037;28;20029;-82
2022/08/09 03:23:45;;;;;;;6.43;2.70;;;16.30;90.50;;;;;;5075220;28;20028;-82
2022/08/09 03:26:13;;;;;;;6.53;3.10;;;16.30;90.30;;;;;;5056915;28;20020;-82
2022/08/09 03:28:40;;;;;;;6.22;3.20;;;16.30;90.40;;;;;;5057072;28;20141;-82
2022/08/09 03:31:07;;;;;;;5.70;2.90;;;16.30;90.40;;;;;;5074734;28;20116;-82
2022/08/09 03:33:34;;;;;;;7.03;3.33;;;16.20;90.50;;;;;;5056879;28;20388;-82
2022/08/09 03:36:01;;;;;;;6.30;3.40;;;16.20;90.60;;;;;;5074614;28;20149;-82
2022/08/09 03:38:26;;;;;;;6.50;3.33;;;16.20;90.60;;;;;;5074644;28;20472;-82
2022/08/09 03:40:52;;;;;;;9.35;4.15;;;16.20;90.70;;;;;;5056679;28;20035;-81
2022/08/09 03:43:18;;;;;;;8.40;3.15;;;16.10;90.60;;;;;;5074635;28;20469;-81
2022/08/09 03:45:43;;;;;;;8.93;3.95;;;16.10;90.70;;;;;;5074486;28;20082;-82
2022/08/09 03:48:09;;;;;;;5.90;3.70;;;16.10;90.90;;;;;;5073184;28;20491;-81
2022/08/09 03:50:36;;;;;;;8.00;3.75;;;16.00;90.90;;;;;;5056845;28;20056;-81
2022/08/09 03:53:03;;;;;;;8.32;4.05;;;16.00;91.20;;;;;;5056582;28;20097;-82
2022/08/09 03:55:29;;;;;;;9.65;3.78;;;16.00;91.00;;;;;;5056529;28;20028;-82
2022/08/09 03:57:56;;;;;;;11.88;5.20;;;16.00;91.40;;;;;;5074579;28;20021;-82
2022/08/09 04:00:22;;;;;;;7.78;4.40;;;15.90;91.20;;;;;;5074681;28;20025;-81
2022/08/09 04:02:48;;;;;;;7.75;4.35;;;15.90;91.30;;;;;;5074321;28;20032;-82
2022/08/09 04:05:14;;;;;;;7.68;4.40;;;15.90;91.40;;;;;;5074188;28;20396;-82
2022/08/09 04:07:40;;;;;;;8.13;4.40;;;15.90;91.70;;;;;;5056279;28;20031;-82
2022/08/09 04:10:07;;;;;;;7.53;4.53;;;15.90;91.50;;;;;;5072570;28;20404;-82
2022/08/09 04:12:47;;;;;;;8.30;5.03;;;15.90;91.60;;;;;;5074377;28;20358;-82
2022/08/09 04:15:14;;;;;;;9.55;4.00;;;15.90;91.70;;;;;;5055860;28;20558;-82
2022/08/09 04:17:41;;;;;;;8.75;4.57;;;15.90;91.90;;;;;;5034999;28;20021;-81
2022/08/09 04:20:11;;;;;;;8.43;4.60;;;15.80;91.90;;;;;;5055588;28;20035;-82
2022/08/09 04:22:37;;;;;;;11.48;4.35;;;15.80;92.00;;;;;;5073770;28;20031;-82
2022/08/09 04:25:04;;;;;;;7.85;3.95;;;15.80;92.10;;;;;;5055630;28;20031;-82
2022/08/09 04:27:30;;;;;;;8.27;4.65;;;15.80;92.30;;;;;;5073505;28;20032;-82
2022/08/09 04:29:56;;;;;;;10.20;4.95;;;15.80;92.20;;;;;;5056002;28;20025;-81
2022/08/09 04:32:22;;;;;;;10.32;4.97;;;15.80;92.30;;;;;;5073907;28;20024;-82
2022/08/09 04:34:47;;;;;;;6.78;4.60;;;15.80;92.30;;;;;;5073508;28;20087;-81
2022/08/09 04:37:13;;;;;;;8.52;4.47;;;15.80;92.40;;;;;;5056095;28;20025;-82
2022/08/09 04:39:38;;;;;;;8.93;4.90;;;15.80;92.50;;;;;;5073547;28;20043;-82
2022/08/09 04:42:05;;;;;;;5.72;4.07;;;15.80;92.50;;;;;;5055820;28;20105;-81
2022/08/09 04:44:30;;;;;;;9.90;4.88;;;15.80;92.50;;;;;;5073405;28;20028;-82
2022/08/09 04:46:56;;;;;;;8.90;4.50;;;15.80;92.60;;;;;;5072355;28;20033;-81
2022/08/09 04:49:22;;;;;;;8.10;4.43;;;15.80;92.90;;;;;;5055572;28;20099;-81
2022/08/09 04:51:47;;;;;;;6.90;4.57;;;15.80;92.60;;;;;;5055570;28;20481;-82
2022/08/09 04:54:13;;;;;;;10.15;4.93;;;15.80;92.70;;;;;;5038805;28;20024;-81
2022/08/09 04:56:39;;;;;;;8.68;4.38;;;15.80;92.70;;;;;;5072066;28;20028;-82
2022/08/09 04:59:04;;;;;;;10.73;4.50;;;15.80;92.70;;;;;;5055458;28;20090;-81
2022/08/09 05:01:30;;;;;;;7.22;3.97;;;15.80;92.70;;;;;;5039117;28;20017;-82
2022/08/09 05:03:56;;;;;;;9.20;4.20;;;15.80;92.80;;;;;;5073183;28;20021;-82
2022/08/09 05:06:21;;;;;;;9.30;3.97;;;15.80;92.80;;;;;;5073909;28;20079;-82
2022/08/09 05:08:47;;;;;;;8.68;3.97;;;15.90;92.90;;;;;;5055334;28;20048;-82
2022/08/09 05:11:14;;;;;;;7.75;3.97;;;15.90;93.00;;;;;;5055620;28;20052;-82
2022/08/09 05:13:39;;;;;;;6.03;3.40;;;16.00;93.00;;;;;;5038588;28;20150;-82
2022/08/09 05:16:08;;;;;;;6.47;3.42;;;16.00;93.00;;;;;;5038708;28;20457;-82
2022/08/09 05:18:34;;;;;;;7.80;3.17;;;16.10;93.00;;;;;;5072949;28;20032;-82
2022/08/09 05:21:00;;;;;;;7.38;3.50;;;16.10;93.00;;;;;;5071731;28;20039;-82
2022/08/09 05:23:26;;;;;;;7.45;3.55;;;16.20;93.00;;;;;;5073096;28;20549;-76
2022/08/09 05:25:52;;;;;;;9.15;4.68;;;16.20;93.00;;;;;;5072146;28;20029;-76
2022/08/09 05:28:18;;;;;;;7.85;3.42;;;16.20;93.00;;;;;;5055337;28;20117;-76
2022/08/09 05:30:44;;;;;;;6.97;3.95;;;16.30;93.00;;;;;;5055067;28;20115;-76
2022/08/09 05:33:10;;;;;;;10.63;4.25;;;16.30;93.00;;;;;;5055128;28;20127;-76
2022/08/09 05:35:36;;;;;;;6.78;4.18;;;16.30;93.00;;;;;;5072909;28;20471;-75
2022/08/09 05:38:02;;;;;;;7.32;3.67;;;16.40;93.00;;;;;;5074900;28;20055;-75
2022/08/09 05:40:28;;;;;;;7.30;3.72;;;16.40;93.00;;;;;;5075770;28;20030;-75
2022/08/09 05:42:54;;;;;;;6.68;3.60;;;16.50;93.00;;;;;;5075972;28;20024;-76
2022/08/09 05:45:20;;;;;;;7.28;3.45;;;16.50;93.00;;;;;;5074332;28;20032;-76
2022/08/09 05:47:46;;;;;;;7.30;3.35;;;16.60;93.00;;;;;;5049478;28;20028;-76
2022/08/09 05:50:12;;;;;;;6.40;3.35;;;16.60;93.00;;;;;;5066835;28;20062;-76
2022/08/09 05:52:38;;;;;;;12.32;3.50;;;16.70;93.00;;;;;;5067841;28;20024;-76
2022/08/09 05:55:06;;;;;;;8.00;3.53;;;16.60;93.00;;;;;;5058553;28;20028;-77
2022/08/09 05:57:33;;;;;;;6.25;3.13;;;16.70;93.00;;;;;;5058418;28;20036;-77
2022/08/09 05:59:58;;;;;;;7.32;3.55;;;16.80;93.00;;;;;;5041804;28;20040;-76
2022/08/09 06:02:24;;;;;;;7.50;2.42;;;16.80;92.90;;;;;;5076559;28;20028;-83
2022/08/09 06:04:50;;;;;;;9.60;3.10;;;16.90;92.90;;;;;;5058642;28;20396;-84
2022/08/09 06:07:15;;;;;;;6.35;3.03;;;16.90;93.00;;;;;;5058651;28;20025;-84
2022/08/09 06:09:41;;;;;;;8.65;3.40;;;17.00;93.00;;;;;;5075001;28;20488;-84
2022/08/09 06:12:07;;;;;;;5.85;3.65;;;17.10;93.00;;;;;;5041836;28;20031;-84
2022/08/09 06:14:33;;;;;;;5.88;2.55;;;17.10;92.90;;;;;;5058874;28;20493;-84
2022/08/09 06:16:58;;;;;;;6.68;3.30;;;17.20;92.90;;;;;;5041765;28;20025;-83
2022/08/09 06:19:24;;;;;;;5.65;2.70;;;17.20;92.90;;;;;;5058416;28;20028;-83
2022/08/09 06:21:51;;;;;;;6.03;2.88;;;17.30;92.80;;;;;;5025104;28;20477;-84
2022/08/09 06:24:16;;;;;;;9.30;2.40;;;17.40;92.80;;;;;;5076041;28;20025;-84
2022/08/09 06:26:42;;;;;;;4.70;2.42;;;17.40;93.00;;;;;;5041572;28;20027;-83
2022/08/09 06:29:08;;;;;;;6.35;3.20;;;17.50;92.70;;;;;;5041642;28;20028;-81
2022/08/09 06:31:35;;;;;;;7.10;2.97;;;17.50;92.60;;;;;;5058188;28;20078;-82
2022/08/09 06:34:02;;;;;;;12.32;3.95;;;17.60;92.60;;;;;;5075952;28;20032;-82
2022/08/09 06:36:28;;;;;;;7.28;3.25;;;17.60;92.60;;;;;;5057846;28;20063;-82
2022/08/09 06:38:56;;;;;;;7.57;2.70;;;17.70;92.50;;;;;;5074600;28;20020;-81
2022/08/09 06:41:22;;;;;;;5.22;2.03;;;17.70;92.50;;;;;;5075662;28;20013;-81
2022/08/09 06:43:47;;;;;;;9.82;2.60;;;17.80;92.50;;;;;;5075773;28;20074;-83
2022/08/09 06:46:14;;;;;;;5.70;2.58;;;17.90;92.40;;;;;;5058404;28;20036;-82
2022/08/09 06:48:41;;;;;;;4.63;2.45;;;17.90;92.30;;;;;;5040719;28;20039;-82
2022/08/09 06:51:07;;;;;;;6.47;2.20;;;18.00;92.30;;;;;;5041129;28;20075;-82
2022/08/09 06:53:34;;;;;;;4.15;1.67;;;18.00;92.20;;;;;;5058069;28;20024;-82
2022/08/09 06:56:01;;;;;;;5.45;1.88;;;18.00;92.20;;;;;;5057515;28;20036;-82
2022/08/09 06:58:29;;;;;;;6.07;1.35;;;18.10;92.20;;;;;;5057390;28;20024;-82
2022/08/09 07:00:55;;;;;;;5.18;2.00;;;18.20;92.30;;;;;;5041051;28;20112;-83
2022/08/09 07:03:22;;;;;;;4.60;1.83;;;18.30;92.00;;;;;;5057551;28;20480;-83
2022/08/09 07:05:48;;;;;;;5.75;1.40;;;18.30;91.80;;;;;;5060228;28;20483;-82
2022/08/09 07:08:13;;;;;;;4.35;1.45;;;18.40;91.70;;;;;;5058487;28;20033;-84
2022/08/09 07:10:39;;;;;;;8.27;1.42;;;18.40;91.60;;;;;;5063785;28;20384;-84
2022/08/09 07:13:05;;;;;;;4.50;1.85;;;18.50;91.60;;;;;;5047150;28;20055;-84
2022/08/09 07:15:30;;;;;;;7.47;1.52;;;18.50;91.50;;;;;;5063944;28;20046;-83
2022/08/09 07:17:56;;;;;;;4.40;1.08;;;18.60;91.20;;;;;;5059390;28;20078;-81
2022/08/09 07:20:22;;;;;;;3.88;1.25;;;18.70;91.10;;;;;;5040627;28;20504;-83
2022/08/09 07:22:48;;;;;;;7.78;1.08;;;18.80;91.10;;;;;;5040476;28;20430;-84
2022/08/09 07:25:14;;;;;;;4.22;1.17;;;18.80;91.00;;;;;;5056819;28;20028;-82
2022/08/09 07:27:40;;;;;;;2.95;1.20;;;18.80;91.00;;;;;;5074021;28;20040;-82
2022/08/09 07:30:06;;;;;;;3.65;1.05;;;18.80;90.90;;;;;;5040721;28;20063;-83
2022/08/09 07:32:32;;;;;;;5.10;0.88;;;18.90;90.80;;;;;;5056785;28;20619;-82
2022/08/09 07:34:58;;;;;;;3.45;0.80;;;19.00;90.80;;;;;;5056465;28;20025;-82
2022/08/09 07:37:23;;;;;;;5.63;1.05;;;19.00;90.70;;;;;;5056497;28;20025;-82
2022/08/09 07:39:49;;;;;;;2.33;0.80;;;19.10;90.70;;;;;;5073347;28;20021;-82
2022/08/09 07:42:15;;;;;;;3.80;1.20;;;19.10;90.90;;;;;;5056718;28;20111;-82
2022/08/09 07:44:40;;;;;;;2.30;0.80;;;19.20;90.50;;;;;;5074983;28;20472;-83
2022/08/09 07:47:06;;;;;;;2.28;0.70;;;19.20;90.40;;;;;;5057285;28;20028;-83
2022/08/09 07:49:31;;;;;;;1.98;0.80;;;19.30;90.40;;;;;;5056805;28;20144;-82
2022/08/09 07:51:57;;;;;;;2.63;0.65;;;19.30;90.30;;;;;;5056608;28;20033;-83
2022/08/09 07:54:26;;;;;;;3.53;0.80;;;19.40;90.20;;;;;;5074196;28;20036;-84
2022/08/09 07:56:52;;;;;;;3.10;0.93;;;19.40;90.10;;;;;;5041096;28;20044;-82
2022/08/09 07:59:19;;;;;;;2.88;0.70;;;19.50;90.10;;;;;;5056010;28;20465;-82
2022/08/09 08:01:45;;;;;;;4.30;1.08;;;19.60;90.00;;;;;;5055231;28;20054;-83
2022/08/09 08:04:10;;;;;;;1.88;0.70;;;19.60;89.70;;;;;;5056372;28;20028;-82
2022/08/09 08:06:36;;;;;;;3.05;1.02;;;19.70;89.40;;;;;;5039699;28;20078;-83
2022/08/09 08:09:02;;;;;;;2.38;0.70;;;19.70;89.10;;;;;;5073884;28;20048;-83
2022/08/09 08:11:27;;;;;;;1.50;0.50;;;19.80;88.80;;;;;;5073899;28;20099;-83
2022/08/09 08:13:53;;;;;;;3.58;0.68;;;19.90;88.50;;;;;;5056192;28;20040;-82
2022/08/09 08:16:19;;;;;;;2.85;0.50;;;19.90;87.70;;;;;;5056255;28;20033;-81
2022/08/09 08:18:44;;;;;;;1.63;0.60;;;20.00;87.00;;;;;;5056159;28;20024;-82
2022/08/09 08:21:10;;;;;;;1.63;0.60;;;20.00;86.30;;;;;;5056236;28;20056;-83
2022/08/09 08:23:35;;;;;;;1.92;0.50;;;20.10;85.80;;;;;;5056057;28;20550;-82
2022/08/09 08:26:01;;;;;;;1.48;0.40;;;20.10;85.20;;;;;;5056518;28;20033;-83
2022/08/09 08:28:27;;;;;;;2.00;0.50;;;20.20;84.70;;;;;;5055929;28;20039;-78
2022/08/09 08:30:52;;;;;;;3.25;0.50;;;20.30;84.30;;;;;;5072698;28;20063;-82
2022/08/09 08:33:18;;;;;;;2.28;0.60;;;20.30;83.70;;;;;;5055731;28;20499;-83
2022/08/09 08:35:44;;;;;;;24.13;2.08;;;20.40;83.20;;;;;;5055674;28;20033;-82
2022/08/09 08:38:09;;;;;;;12.95;2.10;;;20.50;82.60;;;;;;5055620;28;20016;-83
2022/08/09 08:40:36;;;;;;;6.25;1.65;;;20.50;81.90;;;;;;5072356;28;20025;-83
2022/08/09 08:43:03;;;;;;;24.92;6.20;;;20.60;81.30;;;;;;5055680;28;20420;-82
2022/08/09 08:45:34;;;;;;;21.27;3.88;;;20.60;80.60;;;;;;5056343;28;20121;-83
2022/08/09 08:48:00;;;;;;;29.48;7.35;;;20.70;80.10;;;;;;5076268;28;20021;-84
2022/08/09 08:50:26;;;;;;;10.75;2.50;;;20.70;79.60;;;;;;5076495;28;20101;-85
2022/08/09 08:52:53;;;;;;;8.88;1.35;;;20.80;79.70;;;;;;5057605;28;20082;-83
2022/08/09 08:55:19;;;;;;;2.08;0.60;;;20.90;78.30;;;;;;5056173;28;20040;-83
2022/08/09 08:57:45;;;;;;;1.75;0.50;;;21.00;77.90;;;;;;5055896;28;20120;-83
2022/08/09 09:00:12;;;;;;;2.70;0.52;;;21.00;77.30;;;;;;5056102;28;20142;-78
2022/08/09 09:02:38;;;;;;;4.43;0.43;;;21.10;76.90;;;;;;5056508;28;20074;-78
2022/08/09 09:05:05;;;;;;;2.63;0.45;;;21.10;76.40;;;;;;5076775;28;20029;-78
2022/08/09 09:07:32;;;;;;;11.02;2.00;;;21.10;76.10;;;;;;5074431;28;20020;-78
2022/08/09 09:10:02;;;;;;;6.90;1.20;;;21.20;75.80;;;;;;5074401;28;20166;-78
2022/08/09 09:12:30;;;;;;;4.07;0.90;;;21.30;75.40;;;;;;5074591;28;20016;-78
2022/08/09 09:14:58;;;;;;;1.40;0.50;;;21.40;75.20;;;;;;5076332;28;20100;-78
2022/08/09 09:17:24;;;;;;;1.60;0.70;;;21.40;74.80;;;;;;5076244;28;20027;-78
2022/08/09 09:19:52;;;;;;;0.80;0.40;;;21.50;74.50;;;;;;5077337;28;20025;-78
2022/08/09 09:22:19;;;;;;;2.15;0.50;;;21.50;74.10;;;;;;5076202;28;20561;-79
2022/08/09 09:24:52;;;;;;;1.02;0.32;;;21.60;73.60;;;;;;5059370;28;20119;-78
2022/08/09 09:27:25;;;;;;;7.00;0.80;;;21.70;73.30;;;;;;5077382;28;20086;-78
2022/08/09 09:29:55;;;;;;;5.18;0.55;;;21.80;73.00;;;;;;5077824;28;20009;-78
2022/08/09 09:32:22;;;;;;;2.22;0.40;;;21.80;72.70;;;;;;5075921;28;20013;-79
2022/08/09 09:35:14;;;;;;;1.75;0.40;;;21.90;72.40;;;;;;5059208;28;20024;-78
2022/08/09 09:37:40;;;;;;;1.38;0.20;;;22.00;71.90;;;;;;5054464;28;20033;-78
2022/08/09 09:40:07;;;;;;;1.70;0.30;;;22.00;71.80;;;;;;5042582;28;20400;-78
2022/08/09 09:42:32;;;;;;;0.47;0.20;;;22.10;71.40;;;;;;5059038;28;20027;-79
2022/08/09 09:45:05;;;;;;;1.23;0.30;;;22.20;70.80;;;;;;5076788;28;20025;-78
2022/08/09 09:47:31;;;;;;;0.77;0.20;;;22.20;70.40;;;;;;5077387;28;20039;-85
2022/08/09 09:49:58;;;;;;;0.88;0.30;;;22.30;70.10;;;;;;5076867;28;20028;-84
2022/08/09 09:52:25;;;;;;;1.70;0.30;;;22.40;69.60;;;;;;5059080;28;20032;-83
2022/08/09 09:54:58;;;;;;;1.45;0.22;;;22.40;69.10;;;;;;5075420;28;20476;-84
2022/08/09 09:57:24;;;;;;;1.48;0.30;;;22.50;68.90;;;;;;5059090;28;20419;-78
2022/08/09 09:59:53;;;;;;;1.05;0.30;;;22.60;68.70;;;;;;5075392;28;20024;-79
2022/08/09 10:02:19;;;;;;;0.47;0.20;;;22.60;68.50;;;;;;5076687;28;20021;-80
2022/08/09 10:05:02;;;;;;;1.05;0.20;;;22.70;68.40;;;;;;5076469;28;20028;-79
2022/08/09 10:07:28;;;;;;;2.53;0.30;;;22.70;68.00;;;;;;5076779;28;20487;-79
2022/08/09 10:09:55;;;;;;;4.22;0.20;;;22.80;68.00;;;;;;5058551;28;20385;-77
2022/08/09 10:12:31;;;;;;;3.80;0.20;;;22.90;67.70;;;;;;5076320;28;20048;-77
2022/08/09 10:15:15;;;;;;;7.57;0.75;;;22.90;67.00;;;;;;5058778;28;20461;-78
2022/08/09 10:17:46;;;;;;;1.10;0.30;;;23.00;66.80;;;;;;5075383;28;20108;-78
2022/08/09 10:20:21;;;;;;;1.63;0.40;;;23.10;66.60;;;;;;5076225;28;20019;-78
2022/08/09 10:22:49;;;;;;;0.50;0.20;;;23.20;66.40;;;;;;5058490;28;20071;-78
2022/08/09 10:25:15;;;;;;;1.80;0.30;;;23.30;66.30;;;;;;5057708;28;20017;-77
2022/08/09 10:27:45;;;;;;;2.47;0.40;;;23.30;66.00;;;;;;5058334;28;20055;-76
2022/08/09 10:30:13;;;;;;;1.10;0.30;;;23.50;65.80;;;;;;5076180;28;20031;-77
2022/08/09 10:32:39;;;;;;;1.80;0.43;;;23.60;65.40;;;;;;5075450;28;20090;-78
2022/08/09 10:35:07;;;;;;;0.95;0.22;;;23.70;65.00;;;;;;5076491;28;20099;-78
2022/08/09 10:37:33;;;;;;;1.27;0.20;;;23.90;64.60;;;;;;5058214;28;20028;-78
2022/08/09 10:39:59;;;;;;;1.00;0.20;;;24.10;64.00;;;;;;5057820;28;20473;-78
2022/08/09 10:42:25;;;;;;;0.95;0.30;;;24.30;63.50;;;;;;5075841;28;20539;-78
2022/08/09 10:45:00;;;;;;;1.10;0.30;;;24.50;63.80;;;;;;5057895;28;20115;-78
2022/08/09 10:47:31;;;;;;;0.68;0.20;;;24.70;62.60;;;;;;5075912;28;20388;-78
2022/08/09 10:50:00;;;;;;;2.65;0.32;;;24.90;62.30;;;;;;5075927;28;20027;-78
2022/08/09 10:52:25;;;;;;;0.40;0.20;;;25.20;61.60;;;;;;5058034;28;20071;-79
2022/08/09 10:54:52;;;;;;;1.13;0.20;;;25.40;61.20;;;;;;5058291;28;20477;-78
2022/08/09 10:57:18;;;;;;;0.50;0.10;;;25.60;60.70;;;;;;5041497;28;20045;-78
2022/08/09 10:59:44;;;;;;;1.17;0.20;;;25.80;60.20;;;;;;5074548;28;20028;-78
2022/08/09 11:02:36;;;;;;;1.35;0.20;;;26.00;59.60;;;;;;5074246;28;20094;-78
2022/08/09 11:05:15;;;;;;;1.10;0.20;;;26.20;58.30;;;;;;5075445;28;20031;-78
2022/08/09 11:07:41;;;;;;;3.38;0.22;;;26.40;58.10;;;;;;5057249;28;20398;-79
2022/08/09 11:10:07;;;;;;;2.28;0.20;;;26.60;58.10;;;;;;5057648;28;20052;-78
2022/08/09 11:12:32;;;;;;;1.63;0.30;;;26.70;57.70;;;;;;5075296;28;20097;-79
2022/08/09 11:15:17;;;;;;;2.63;0.20;;;26.90;57.30;;;;;;5057202;28;20024;-77
2022/08/09 11:17:45;;;;;;;1.27;0.30;;;27.20;56.20;;;;;;5074966;28;20112;-77
2022/08/09 11:20:11;;;;;;;1.10;0.25;;;27.40;56.20;;;;;;5073763;28;20024;-79
2022/08/09 11:22:43;;;;;;;1.30;0.17;;;27.60;55.70;;;;;;5057125;28;20025;-78
2022/08/09 11:25:19;;;;;;;1.75;0.30;;;27.80;55.20;;;;;;5057172;28;20029;-78
2022/08/09 11:27:47;;;;;;;0.30;0.10;;;28.10;54.50;;;;;;5073645;28;20021;-79
2022/08/09 11:30:29;;;;;;;0.40;0.20;;;28.30;54.40;;;;;;5057330;28;20021;-79
2022/08/09 11:33:16;;;;;;;0.93;0.10;;;28.60;54.00;;;;;;5073896;28;20111;-78
2022/08/09 11:36:00;;;;;;;0.75;0.10;;;28.80;52.50;;;;;;5074976;28;20028;-78
2022/08/09 11:38:27;;;;;;;0.90;0.20;;;29.10;51.80;;;;;;5073673;28;20024;-79
2022/08/09 11:40:54;;;;;;;1.77;0.15;;;29.20;51.80;;;;;;5074659;28;20033;-79
2022/08/09 11:43:29;;;;;;;0.98;0.20;;;29.50;51.60;;;;;;5057117;28;20094;-78
2022/08/09 11:46:00;;;;;;;1.00;0.20;;;29.70;50.60;;;;;;5074478;28;20033;-78
2022/08/09 11:48:29;;;;;;;0.90;0.20;;;29.90;50.60;;;;;;5056866;28;20384;-78
2022/08/09 11:51:00;;;;;;;1.40;0.40;;;30.10;50.40;;;;;;5057216;28;20029;-79
2022/08/09 11:53:26;;;;;;;1.92;0.20;;;30.30;49.70;;;;;;5074794;28;20112;-79
2022/08/09 11:55:54;;;;;;;0.73;0.20;;;30.50;49.40;;;;;;5057241;28;20028;-78
2022/08/09 11:58:20;;;;;;;0.68;0.20;;;30.70;48.80;;;;;;5072994;28;20024;-79
2022/08/09 12:00:52;;;;;;;1.27;0.20;;;31.00;48.40;;;;;;5056515;28;20032;-79
2022/08/09 12:03:23;;;;;;;1.33;0.20;;;31.20;47.90;;;;;;5074279;28;20042;-79
2022/08/09 12:05:52;;;;;;;0.93;0.30;;;31.30;47.50;;;;;;5074194;28;20490;-79
2022/08/09 12:08:19;;;;;;;0.30;0.10;;;31.60;47.20;;;;;;5072919;28;20017;-80
2022/08/09 12:10:54;;;;;;;1.45;0.20;;;31.80;46.80;;;;;;5072837;28;20017;-79
2022/08/09 12:13:40;;;;;;;1.10;0.30;;;31.90;46.20;;;;;;5072863;28;20024;-77
2022/08/09 12:16:11;;;;;;;0.45;0.10;;;32.20;45.60;;;;;;5073732;28;20016;-79
2022/08/09 12:18:44;;;;;;;0.43;0.10;;;32.40;45.70;;;;;;5054323;28;20025;-77
2022/08/09 12:21:11;;;;;;;1.63;0.15;;;32.60;45.50;;;;;;5073282;28;20079;-77
2022/08/09 12:23:45;;;;;;;0.70;0.17;;;32.90;45.30;;;;;;5072934;28;20019;-78
2022/08/09 12:26:12;;;;;;;0.77;0.13;;;33.10;44.50;;;;;;5054441;28;20060;-77
2022/08/09 12:28:45;;;;;;;2.13;0.30;;;33.40;44.50;;;;;;5055544;28;20029;-79
2022/08/09 12:31:26;;;;;;;1.15;0.20;;;33.50;43.90;;;;;;5073736;28;20107;-79
2022/08/09 12:33:53;;;;;;;1.30;0.20;;;33.60;43.00;;;;;;5072156;28;20040;-79
2022/08/09 12:36:19;;;;;;;1.55;0.10;;;33.80;43.10;;;;;;5072337;28;20527;-79
2022/08/09 12:38:45;;;;;;;0.32;0.10;;;34.00;42.80;;;;;;5039443;28;20023;-79
2022/08/09 12:41:12;;;;;;;0.45;0.10;;;34.10;42.30;;;;;;5073084;28;20021;-79
2022/08/09 12:43:38;;;;;;;0.40;0.10;;;34.30;42.00;;;;;;5055677;28;20021;-79
2022/08/09 12:46:05;;;;;;;1.15;0.10;;;34.50;41.80;;;;;;5072268;28;20029;-79
2022/08/09 12:48:31;;;;;;;1.23;0.22;;;34.70;41.50;;;;;;5071990;28;20025;-79
2022/08/09 12:50:58;;;;;;;1.23;0.20;;;34.90;41.50;;;;;;5072687;28;20070;-79